sensor_id;sensor_type;location;lat;lon;timestamp;pressure;altitude;pressure_sealevel;temperature;humidity
66857;BME280;53766;50.280;19.160;2023-04-23T00:00:42;98103.66;;;18.38;37.43
66857;BME280;53766;50.280;19.160;2023-04-23T00:03:31;98114.31;;;18.38;37.30
66857;BME280;53766;50.280;19.160;2023-04-23T00:06:05;98114.31;;;18.38;37.41
66857;BME280;53766;50.280;19.160;2023-04-23T00:08:33;98113.72;;;18.36;37.40
66857;BME280;53766;50.280;19.160;2023-04-23T00:11:01;98110.22;;;18.36;37.59
66857;BME280;53766;50.280;19.160;2023-04-23T00:13:28;98117.38;;;18.35;37.45
66857;BME280;53766;50.280;19.160;2023-04-23T00:15:56;98109.38;;;18.35;37.35
66857;BME280;53766;50.280;19.160;2023-04-23T00:18:24;98111.25;;;18.35;37.63
66857;BME280;53766;50.280;19.160;2023-04-23T00:20:52;98112.28;;;18.34;37.30
66857;BME280;53766;50.280;19.160;2023-04-23T00:23:20;98106.13;;;18.33;37.29
66857;BME280;53766;50.280;19.160;2023-04-23T00:25:47;98108.78;;;18.33;37.62
66857;BME280;53766;50.280;19.160;2023-04-23T00:28:16;98103.44;;;18.33;37.49
66857;BME280;53766;50.280;19.160;2023-04-23T00:30:43;98099.16;;;18.32;37.79
66857;BME280;53766;50.280;19.160;2023-04-23T00:33:11;98089.50;;;18.31;37.77
66857;BME280;53766;50.280;19.160;2023-04-23T00:35:38;98084.19;;;18.31;37.67
66857;BME280;53766;50.280;19.160;2023-04-23T00:38:06;98086.84;;;18.31;37.64
66857;BME280;53766;50.280;19.160;2023-04-23T00:40:33;98090.56;;;18.30;37.64
66857;BME280;53766;50.280;19.160;2023-04-23T00:43:01;98087.88;;;18.30;37.56
66857;BME280;53766;50.280;19.160;2023-04-23T00:45:28;98087.09;;;18.29;37.70
66857;BME280;53766;50.280;19.160;2023-04-23T00:47:57;98082.56;;;18.30;37.67
66857;BME280;53766;50.280;19.160;2023-04-23T00:50:24;98080.91;;;18.29;37.45
66857;BME280;53766;50.280;19.160;2023-04-23T00:52:52;98086.25;;;18.29;37.77
66857;BME280;53766;50.280;19.160;2023-04-23T00:55:19;98084.63;;;18.28;37.85
66857;BME280;53766;50.280;19.160;2023-04-23T00:57:48;98076.63;;;18.28;37.53
66857;BME280;53766;50.280;19.160;2023-04-23T01:00:15;98080.31;;;18.27;37.52
66857;BME280;53766;50.280;19.160;2023-04-23T01:02:44;98080.31;;;18.27;37.83
66857;BME280;53766;50.280;19.160;2023-04-23T01:05:13;98080.31;;;18.27;37.64
66857;BME280;53766;50.280;19.160;2023-04-23T01:07:43;98078.69;;;18.26;37.72
66857;BME280;53766;50.280;19.160;2023-04-23T01:10:11;98088.53;;;18.25;37.62
66857;BME280;53766;50.280;19.160;2023-04-23T01:12:39;98089.34;;;18.26;37.86
66857;BME280;53766;50.280;19.160;2023-04-23T01:15:07;98084.00;;;18.26;37.95
66857;BME280;53766;50.280;19.160;2023-04-23T01:17:35;98086.88;;;18.24;37.92
66857;BME280;53766;50.280;19.160;2023-04-23T01:20:03;98086.06;;;18.24;37.80
66857;BME280;53766;50.280;19.160;2023-04-23T01:22:36;98087.72;;;18.25;37.77
66857;BME280;53766;50.280;19.160;2023-04-23T01:25:04;98091.41;;;18.24;37.91
66857;BME280;53766;50.280;19.160;2023-04-23T01:27:34;98089.78;;;18.23;37.83
66857;BME280;53766;50.280;19.160;2023-04-23T01:30:03;98084.44;;;18.23;37.73
66857;BME280;53766;50.280;19.160;2023-04-23T01:32:31;98088.13;;;18.22;37.97
66857;BME280;53766;50.280;19.160;2023-04-23T01:34:59;98088.13;;;18.22;37.78
66857;BME280;53766;50.280;19.160;2023-04-23T01:37:28;98089.16;;;18.21;37.74
66857;BME280;53766;50.280;19.160;2023-04-23T01:39:56;98091.84;;;18.21;37.85
66857;BME280;53766;50.280;19.160;2023-04-23T01:42:23;98095.50;;;18.20;37.85
66857;BME280;53766;50.280;19.160;2023-04-23T01:44:51;98091.00;;;18.20;38.04
66857;BME280;53766;50.280;19.160;2023-04-23T01:47:19;98084.84;;;18.20;37.70
66857;BME280;53766;50.280;19.160;2023-04-23T01:49:46;98088.56;;;18.19;37.90
66857;BME280;53766;50.280;19.160;2023-04-23T01:52:14;98088.56;;;18.19;37.75
66857;BME280;53766;50.280;19.160;2023-04-23T01:54:41;98084.25;;;18.18;37.83
66857;BME280;53766;50.280;19.160;2023-04-23T01:57:09;98083.44;;;18.17;37.99
66857;BME280;53766;50.280;19.160;2023-04-23T01:59:38;98081.56;;;18.18;37.99
66857;BME280;53766;50.280;19.160;2023-04-23T02:02:06;98095.94;;;18.17;37.96
66857;BME280;53766;50.280;19.160;2023-04-23T02:04:37;98093.28;;;18.17;38.04
66857;BME280;53766;50.280;19.160;2023-04-23T02:07:06;98091.41;;;18.17;38.10
66857;BME280;53766;50.280;19.160;2023-04-23T02:09:33;98076.69;;;18.15;37.83
66857;BME280;53766;50.280;19.160;2023-04-23T02:12:01;98079.34;;;18.15;38.06
66857;BME280;53766;50.280;19.160;2023-04-23T02:14:28;98082.81;;;18.15;37.84
66857;BME280;53766;50.280;19.160;2023-04-23T02:16:56;98077.69;;;18.14;37.83
66857;BME280;53766;50.280;19.160;2023-04-23T02:19:23;98077.69;;;18.14;38.09
66857;BME280;53766;50.280;19.160;2023-04-23T02:21:51;98077.69;;;18.14;38.03
66857;BME280;53766;50.280;19.160;2023-04-23T02:24:18;98078.72;;;18.13;38.09
66857;BME280;53766;50.280;19.160;2023-04-23T02:26:46;98073.41;;;18.13;38.08
66857;BME280;53766;50.280;19.160;2023-04-23T02:29:13;98069.94;;;18.12;38.06
66857;BME280;53766;50.280;19.160;2023-04-23T02:31:41;98072.59;;;18.12;38.04
66857;BME280;53766;50.280;19.160;2023-04-23T02:34:08;98071.75;;;18.12;38.00
66857;BME280;53766;50.280;19.160;2023-04-23T02:36:36;98070.13;;;18.11;38.04
66857;BME280;53766;50.280;19.160;2023-04-23T02:39:04;98069.31;;;18.10;37.96
66857;BME280;53766;50.280;19.160;2023-04-23T02:41:31;98067.47;;;18.11;38.09
66857;BME280;53766;50.280;19.160;2023-04-23T02:43:59;98064.00;;;18.10;38.21
66857;BME280;53766;50.280;19.160;2023-04-23T02:46:26;98066.84;;;18.08;38.11
66857;BME280;53766;50.280;19.160;2023-04-23T02:48:54;98067.66;;;18.09;38.17
66857;BME280;53766;50.280;19.160;2023-04-23T02:51:21;98068.72;;;18.08;38.13
66857;BME280;53766;50.280;19.160;2023-04-23T02:53:49;98070.56;;;18.07;38.06
66857;BME280;53766;50.280;19.160;2023-04-23T02:56:16;98071.56;;;18.06;38.16
66857;BME280;53766;50.280;19.160;2023-04-23T02:58:44;98064.38;;;18.07;38.17
66857;BME280;53766;50.280;19.160;2023-04-23T03:01:12;98063.59;;;18.06;38.27
66857;BME280;53766;50.280;19.160;2023-04-23T03:03:39;98063.59;;;18.06;38.05
66857;BME280;53766;50.280;19.160;2023-04-23T03:06:07;98067.28;;;18.05;38.27
66857;BME280;53766;50.280;19.160;2023-04-23T03:08:35;98067.28;;;18.05;38.16
66857;BME280;53766;50.280;19.160;2023-04-23T03:11:02;98065.63;;;18.04;37.99
66857;BME280;53766;50.280;19.160;2023-04-23T03:13:30;98062.97;;;18.04;38.26
66857;BME280;53766;50.280;19.160;2023-04-23T03:15:58;98059.50;;;18.04;38.11
66857;BME280;53766;50.280;19.160;2023-04-23T03:18:25;98063.16;;;18.03;38.09
66857;BME280;53766;50.280;19.160;2023-04-23T03:20:53;98068.50;;;18.03;38.24
66857;BME280;53766;50.280;19.160;2023-04-23T03:23:21;98063.16;;;18.03;38.28
66857;BME280;53766;50.280;19.160;2023-04-23T03:25:49;98063.41;;;18.01;38.06
66857;BME280;53766;50.280;19.160;2023-04-23T03:28:16;98066.06;;;18.01;38.19
66857;BME280;53766;50.280;19.160;2023-04-23T03:30:44;98066.06;;;18.01;38.23
66857;BME280;53766;50.280;19.160;2023-04-23T03:33:11;98066.06;;;18.01;38.20
66857;BME280;53766;50.280;19.160;2023-04-23T03:35:39;98061.75;;;18.00;38.31
66857;BME280;53766;50.280;19.160;2023-04-23T03:38:06;98051.94;;;18.01;38.27
66857;BME280;53766;50.280;19.160;2023-04-23T03:40:34;98052.94;;;18.00;38.14
66857;BME280;53766;50.280;19.160;2023-04-23T03:43:01;98054.81;;;17.99;38.18
66857;BME280;53766;50.280;19.160;2023-04-23T03:45:29;98059.09;;;18.00;38.28
66857;BME280;53766;50.280;19.160;2023-04-23T03:47:57;98055.81;;;17.98;38.08
66857;BME280;53766;50.280;19.160;2023-04-23T03:50:25;98058.47;;;17.98;38.11
66857;BME280;53766;50.280;19.160;2023-04-23T03:52:52;98059.53;;;17.97;38.11
66857;BME280;53766;50.280;19.160;2023-04-23T03:55:20;98064.84;;;17.97;38.27
66857;BME280;53766;50.280;19.160;2023-04-23T03:57:47;98063.81;;;17.98;38.22
66857;BME280;53766;50.280;19.160;2023-04-23T04:00:15;98068.13;;;17.99;38.38
66857;BME280;53766;50.280;19.160;2023-04-23T04:02:42;98070.19;;;17.97;38.14
66857;BME280;53766;50.280;19.160;2023-04-23T04:05:10;98071.81;;;17.98;38.07
66857;BME280;53766;50.280;19.160;2023-04-23T04:07:38;98067.50;;;17.97;38.41
66857;BME280;53766;50.280;19.160;2023-04-23T04:10:06;98071.81;;;17.98;38.20
66857;BME280;53766;50.280;19.160;2023-04-23T04:12:34;98064.84;;;17.97;38.26
66857;BME280;53766;50.280;19.160;2023-04-23T04:15:03;98069.13;;;17.98;38.31
66857;BME280;53766;50.280;19.160;2023-04-23T04:17:31;98066.47;;;17.98;38.11
66857;BME280;53766;50.280;19.160;2023-04-23T04:19:58;98068.13;;;17.99;38.32
66857;BME280;53766;50.280;19.160;2023-04-23T04:22:26;98069.13;;;17.98;38.38
66857;BME280;53766;50.280;19.160;2023-04-23T04:24:53;98071.81;;;17.98;38.06
66857;BME280;53766;50.280;19.160;2023-04-23T04:27:20;98067.31;;;17.99;38.23
66857;BME280;53766;50.280;19.160;2023-04-23T04:29:48;98077.97;;;17.99;38.16
66857;BME280;53766;50.280;19.160;2023-04-23T04:32:16;98073.44;;;17.99;38.19
66857;BME280;53766;50.280;19.160;2023-04-23T04:34:44;98068.13;;;17.99;38.12
66857;BME280;53766;50.280;19.160;2023-04-23T04:37:11;98062.38;;;18.02;38.24
66857;BME280;53766;50.280;19.160;2023-04-23T04:39:39;98064.81;;;18.04;38.08
66857;BME280;53766;50.280;19.160;2023-04-23T04:42:06;98068.69;;;18.15;38.10
66857;BME280;53766;50.280;19.160;2023-04-23T04:44:34;98072.56;;;18.19;38.11
66857;BME280;53766;50.280;19.160;2023-04-23T04:47:04;98078.09;;;18.17;38.05
66857;BME280;53766;50.280;19.160;2023-04-23T04:49:34;98070.47;;;18.27;37.78
66857;BME280;53766;50.280;19.160;2023-04-23T04:52:02;98069.53;;;18.54;37.56
66857;BME280;53766;50.280;19.160;2023-04-23T04:54:29;98074.91;;;18.47;37.40
66857;BME280;53766;50.280;19.160;2023-04-23T04:56:57;98077.38;;;18.42;37.54
66857;BME280;53766;50.280;19.160;2023-04-23T04:59:24;98073.72;;;18.36;37.43
66857;BME280;53766;50.280;19.160;2023-04-23T05:01:51;98071.25;;;18.35;37.71
66857;BME280;53766;50.280;19.160;2023-04-23T05:04:19;98075.78;;;18.34;37.66
66857;BME280;53766;50.280;19.160;2023-04-23T05:06:47;98074.13;;;18.33;37.89
66857;BME280;53766;50.280;19.160;2023-04-23T05:09:14;98077.84;;;18.32;37.83
66857;BME280;53766;50.280;19.160;2023-04-23T05:11:42;98076.19;;;18.31;37.91
66857;BME280;53766;50.280;19.160;2023-04-23T05:14:10;98069.22;;;18.30;37.88
66857;BME280;53766;50.280;19.160;2023-04-23T05:16:38;98069.66;;;18.27;38.02
66857;BME280;53766;50.280;19.160;2023-04-23T05:19:06;98076.00;;;18.26;38.09
66857;BME280;53766;50.280;19.160;2023-04-23T05:21:34;98072.75;;;18.24;38.05
66857;BME280;53766;50.280;19.160;2023-04-23T05:24:01;98068.44;;;18.23;37.98
66857;BME280;53766;50.280;19.160;2023-04-23T05:26:29;98074.78;;;18.22;37.95
66857;BME280;53766;50.280;19.160;2023-04-23T05:28:57;98070.50;;;18.21;37.97
66857;BME280;53766;50.280;19.160;2023-04-23T05:31:24;98076.66;;;18.21;38.11
66857;BME280;53766;50.280;19.160;2023-04-23T05:33:55;98081.16;;;18.21;38.06
66857;BME280;53766;50.280;19.160;2023-04-23T05:36:22;98077.47;;;18.22;38.04
66857;BME280;53766;50.280;19.160;2023-04-23T05:38:49;98081.16;;;18.21;38.00
66857;BME280;53766;50.280;19.160;2023-04-23T05:41:17;98071.31;;;18.21;38.08
66857;BME280;53766;50.280;19.160;2023-04-23T05:43:44;98072.94;;;18.22;38.02
66857;BME280;53766;50.280;19.160;2023-04-23T05:46:12;98077.47;;;18.22;37.96
66857;BME280;53766;50.280;19.160;2023-04-23T05:48:39;98074.78;;;18.22;38.01
66857;BME280;53766;50.280;19.160;2023-04-23T05:51:07;98078.28;;;18.22;38.10
66857;BME280;53766;50.280;19.160;2023-04-23T05:53:34;98073.78;;;18.23;38.11
66857;BME280;53766;50.280;19.160;2023-04-23T05:56:02;98080.72;;;18.24;38.09
66857;BME280;53766;50.280;19.160;2023-04-23T05:58:30;98069.47;;;18.22;38.07
66857;BME280;53766;50.280;19.160;2023-04-23T06:00:58;98074.78;;;18.22;38.14
66857;BME280;53766;50.280;19.160;2023-04-23T06:03:25;98072.13;;;18.22;38.14
66857;BME280;53766;50.280;19.160;2023-04-23T06:05:53;98071.13;;;18.23;38.13
66857;BME280;53766;50.280;19.160;2023-04-23T06:08:21;98075.41;;;18.24;38.30
66857;BME280;53766;50.280;19.160;2023-04-23T06:10:51;98071.13;;;18.23;38.16
66857;BME280;53766;50.280;19.160;2023-04-23T06:13:19;98072.75;;;18.24;38.21
66857;BME280;53766;50.280;19.160;2023-04-23T06:15:46;98070.88;;;18.24;38.31
66857;BME280;53766;50.280;19.160;2023-04-23T06:18:14;98073.53;;;18.24;38.29
66857;BME280;53766;50.280;19.160;2023-04-23T06:20:41;98074.38;;;18.25;38.40
66857;BME280;53766;50.280;19.160;2023-04-23T06:23:12;98077.06;;;18.25;38.37
66857;BME280;53766;50.280;19.160;2023-04-23T06:25:39;98071.50;;;18.26;38.47
66857;BME280;53766;50.280;19.160;2023-04-23T06:28:07;98073.34;;;18.26;38.28
66857;BME280;53766;50.280;19.160;2023-04-23T06:30:34;98068.81;;;18.26;38.45
66857;BME280;53766;50.280;19.160;2023-04-23T06:33:02;98072.34;;;18.27;38.45
66857;BME280;53766;50.280;19.160;2023-04-23T06:35:29;98073.94;;;18.28;38.63
66857;BME280;53766;50.280;19.160;2023-04-23T06:37:57;98071.28;;;18.28;38.67
66857;BME280;53766;50.280;19.160;2023-04-23T06:40:25;98064.91;;;18.29;38.47
66857;BME280;53766;50.280;19.160;2023-04-23T06:42:53;98066.56;;;18.30;38.61
66857;BME280;53766;50.280;19.160;2023-04-23T06:45:20;98060.19;;;18.31;38.87
66857;BME280;53766;50.280;19.160;2023-04-23T06:47:48;98063.47;;;18.33;38.73
66857;BME280;53766;50.280;19.160;2023-04-23T06:50:15;98066.72;;;18.35;38.72
66857;BME280;53766;50.280;19.160;2023-04-23T06:52:43;98059.56;;;18.36;38.75
66857;BME280;53766;50.280;19.160;2023-04-23T06:55:11;98063.06;;;18.36;39.00
66857;BME280;53766;50.280;19.160;2023-04-23T06:57:38;98054.63;;;18.39;39.07
66857;BME280;53766;50.280;19.160;2023-04-23T07:00:06;98057.28;;;18.39;39.21
66857;BME280;53766;50.280;19.160;2023-04-23T07:02:36;98057.09;;;18.41;39.14
66857;BME280;53766;50.280;19.160;2023-04-23T07:05:04;98063.84;;;18.43;39.29
66857;BME280;53766;50.280;19.160;2023-04-23T07:07:32;98063.63;;;18.45;39.30
66857;BME280;53766;50.280;19.160;2023-04-23T07:10:04;98061.56;;;18.47;39.54
66857;BME280;53766;50.280;19.160;2023-04-23T07:12:31;98051.50;;;18.49;39.68
66857;BME280;53766;50.280;19.160;2023-04-23T07:14:59;98052.31;;;18.49;39.62
66857;BME280;53766;50.280;19.160;2023-04-23T07:17:27;98051.88;;;18.53;39.66
66857;BME280;53766;50.280;19.160;2023-04-23T07:19:54;98053.53;;;18.54;39.94
66857;BME280;53766;50.280;19.160;2023-04-23T07:22:23;98053.28;;;18.55;39.79
66857;BME280;53766;50.280;19.160;2023-04-23T07:24:51;98058.41;;;18.57;39.91
66857;BME280;53766;50.280;19.160;2023-04-23T07:27:19;98058.41;;;18.57;39.89
66857;BME280;53766;50.280;19.160;2023-04-23T07:29:46;98054.94;;;18.56;39.63
66857;BME280;53766;50.280;19.160;2023-04-23T07:32:14;98040.78;;;18.56;39.48
66857;BME280;53766;50.280;19.160;2023-04-23T07:34:42;98047.16;;;18.55;39.43
66857;BME280;53766;50.280;19.160;2023-04-23T07:37:09;98047.75;;;18.57;39.33
66857;BME280;53766;50.280;19.160;2023-04-23T07:39:36;98049.59;;;18.56;39.22
66857;BME280;53766;50.280;19.160;2023-04-23T07:42:04;98047.75;;;18.57;39.48
66857;BME280;53766;50.280;19.160;2023-04-23T07:44:31;98040.78;;;18.56;39.26
66857;BME280;53766;50.280;19.160;2023-04-23T07:46:59;98038.75;;;18.58;39.32
66857;BME280;53766;50.280;19.160;2023-04-23T07:49:26;98041.41;;;18.58;39.25
66857;BME280;53766;50.280;19.160;2023-04-23T07:51:54;98041.41;;;18.58;39.23
66857;BME280;53766;50.280;19.160;2023-04-23T07:54:22;98038.75;;;18.58;39.39
66857;BME280;53766;50.280;19.160;2023-04-23T07:56:52;98035.22;;;18.57;39.18
66857;BME280;53766;50.280;19.160;2023-04-23T07:59:19;98028.88;;;18.58;39.18
66857;BME280;53766;50.280;19.160;2023-04-23T08:01:47;98020.66;;;18.60;39.25
66857;BME280;53766;50.280;19.160;2023-04-23T08:04:14;98027.63;;;18.61;38.79
66857;BME280;53766;50.280;19.160;2023-04-23T08:06:43;98033.78;;;18.61;38.81
66857;BME280;53766;50.280;19.160;2023-04-23T08:09:10;98018.59;;;18.62;38.82
66857;BME280;53766;50.280;19.160;2023-04-23T08:11:38;98023.69;;;18.63;38.82
66857;BME280;53766;50.280;19.160;2023-04-23T08:14:05;98022.91;;;18.63;38.83
66857;BME280;53766;50.280;19.160;2023-04-23T08:16:33;98020.22;;;18.63;38.88
66857;BME280;53766;50.280;19.160;2023-04-23T08:19:03;98022.91;;;18.63;38.87
66857;BME280;53766;50.280;19.160;2023-04-23T08:21:33;98016.50;;;18.64;38.64
66857;BME280;53766;50.280;19.160;2023-04-23T08:24:01;98020.22;;;18.63;38.41
66857;BME280;53766;50.280;19.160;2023-04-23T08:26:30;98018.59;;;18.62;38.37
66857;BME280;53766;50.280;19.160;2023-04-23T08:28:57;98008.75;;;18.62;38.24
66857;BME280;53766;50.280;19.160;2023-04-23T08:31:27;98012.84;;;18.65;38.10
66857;BME280;53766;50.280;19.160;2023-04-23T08:33:54;98006.69;;;18.64;37.93
66857;BME280;53766;50.280;19.160;2023-04-23T08:36:22;98004.63;;;18.66;37.88
66857;BME280;53766;50.280;19.160;2023-04-23T08:38:50;98001.72;;;18.68;37.88
66857;BME280;53766;50.280;19.160;2023-04-23T08:41:21;98001.72;;;18.68;37.67
66857;BME280;53766;50.280;19.160;2023-04-23T08:44:17;98004.97;;;18.70;37.69
66857;BME280;53766;50.280;19.160;2023-04-23T08:46:45;98001.31;;;18.71;37.42
66857;BME280;53766;50.280;19.160;2023-04-23T08:49:16;97996.78;;;18.71;37.76
66857;BME280;53766;50.280;19.160;2023-04-23T08:51:54;97995.72;;;18.73;37.72
66857;BME280;53766;50.280;19.160;2023-04-23T08:54:27;97996.31;;;18.75;37.59
66857;BME280;53766;50.280;19.160;2023-04-23T08:56:57;97991.84;;;18.75;37.79
66857;BME280;53766;50.280;19.160;2023-04-23T08:59:25;97987.31;;;18.76;37.77
66857;BME280;53766;50.280;19.160;2023-04-23T09:01:52;97986.25;;;18.77;37.51
66857;BME280;53766;50.280;19.160;2023-04-23T09:04:21;97981.56;;;18.79;37.40
66857;BME280;53766;50.280;19.160;2023-04-23T09:06:48;97980.75;;;18.78;37.71
66857;BME280;53766;50.280;19.160;2023-04-23T09:09:16;97968.00;;;18.80;37.22
66857;BME280;53766;50.280;19.160;2023-04-23T09:11:44;97963.28;;;18.82;37.02
66857;BME280;53766;50.280;19.160;2023-04-23T09:14:12;97972.09;;;18.83;37.30
66857;BME280;53766;50.280;19.160;2023-04-23T09:16:40;97977.22;;;18.84;37.14
66857;BME280;53766;50.280;19.160;2023-04-23T09:19:09;97972.47;;;18.86;37.20
66857;BME280;53766;50.280;19.160;2023-04-23T09:21:38;97972.47;;;18.86;37.26
66857;BME280;53766;50.280;19.160;2023-04-23T09:24:08;97990.09;;;18.87;37.25
66857;BME280;53766;50.280;19.160;2023-04-23T09:26:44;97976.78;;;18.87;37.31
66857;BME280;53766;50.280;19.160;2023-04-23T09:29:18;97974.94;;;18.88;37.25
66857;BME280;53766;50.280;19.160;2023-04-23T09:31:47;97968.34;;;18.90;36.82
66857;BME280;53766;50.280;19.160;2023-04-23T09:34:19;97963.00;;;18.90;36.63
66857;BME280;53766;50.280;19.160;2023-04-23T09:36:48;97955.59;;;18.93;36.42
66857;BME280;53766;50.280;19.160;2023-04-23T09:39:18;97953.53;;;18.95;36.18
66857;BME280;53766;50.280;19.160;2023-04-23T09:41:50;97956.81;;;18.97;35.97
66857;BME280;53766;50.280;19.160;2023-04-23T09:44:20;97949.38;;;18.99;35.88
66857;BME280;53766;50.280;19.160;2023-04-23T09:46:52;97945.69;;;19.00;35.79
66857;BME280;53766;50.280;19.160;2023-04-23T09:49:19;97948.94;;;19.02;35.83
66857;BME280;53766;50.280;19.160;2023-04-23T09:51:48;97950.56;;;19.03;35.81
66857;BME280;53766;50.280;19.160;2023-04-23T09:54:19;97941.53;;;19.04;35.83
66857;BME280;53766;50.280;19.160;2023-04-23T09:56:50;97932.47;;;19.05;36.16
66857;BME280;53766;50.280;19.160;2023-04-23T09:59:25;97939.47;;;19.06;36.07
66857;BME280;53766;50.280;19.160;2023-04-23T10:02:14;97929.97;;;19.10;35.82
66857;BME280;53766;50.280;19.160;2023-04-23T10:04:42;97923.81;;;19.09;35.87
66857;BME280;53766;50.280;19.160;2023-04-23T10:07:10;97934.06;;;19.13;35.82
66857;BME280;53766;50.280;19.160;2023-04-23T10:09:42;97932.19;;;19.13;35.66
66857;BME280;53766;50.280;19.160;2023-04-23T10:12:12;97918.84;;;19.13;35.53
66857;BME280;53766;50.280;19.160;2023-04-23T10:14:59;97915.16;;;19.14;35.96
66857;BME280;53766;50.280;19.160;2023-04-23T10:17:27;97920.50;;;19.14;36.16
66857;BME280;53766;50.280;19.160;2023-04-23T10:19:57;97905.28;;;19.15;36.11
66857;BME280;53766;50.280;19.160;2023-04-23T10:22:29;97905.50;;;19.13;36.40
66857;BME280;53766;50.280;19.160;2023-04-23T10:24:57;97906.09;;;19.15;36.11
66857;BME280;53766;50.280;19.160;2023-04-23T10:27:28;97913.06;;;19.16;35.72
66857;BME280;53766;50.280;19.160;2023-04-23T10:30:15;97906.69;;;19.17;35.76
66857;BME280;53766;50.280;19.160;2023-04-23T10:32:43;97900.31;;;19.18;35.58
66857;BME280;53766;50.280;19.160;2023-04-23T10:35:13;97901.97;;;19.19;35.24
66857;BME280;53766;50.280;19.160;2023-04-23T10:37:41;97905.22;;;19.21;35.27
66857;BME280;53766;50.280;19.160;2023-04-23T10:40:12;97892.47;;;19.23;34.48
66857;BME280;53766;50.280;19.160;2023-04-23T10:42:42;97898.41;;;19.25;34.64
66857;BME280;53766;50.280;19.160;2023-04-23T10:47:54;97884.22;;;19.25;35.15
66857;BME280;53766;50.280;19.160;2023-04-23T10:50:29;97885.66;;;19.27;34.34
66857;BME280;53766;50.280;19.160;2023-04-23T10:53:01;97885.41;;;19.29;33.98
66857;BME280;53766;50.280;19.160;2023-04-23T10:55:30;97884.16;;;19.31;34.09
66857;BME280;53766;50.280;19.160;2023-04-23T10:58:04;97890.31;;;19.32;33.91
66857;BME280;53766;50.280;19.160;2023-04-23T11:06:05;97877.09;;;19.37;33.21
66857;BME280;53766;50.280;19.160;2023-04-23T11:08:37;97871.34;;;19.40;33.22
66857;BME280;53766;50.280;19.160;2023-04-23T11:11:08;97867.59;;;19.41;33.54
66857;BME280;53766;50.280;19.160;2023-04-23T11:13:50;97871.09;;;19.42;33.21
66857;BME280;53766;50.280;19.160;2023-04-23T11:16:22;97870.06;;;19.43;32.88
66857;BME280;53766;50.280;19.160;2023-04-23T11:18:57;97872.50;;;19.44;32.69
66857;BME280;53766;50.280;19.160;2023-04-23T11:24:35;97866.50;;;19.49;33.27
66857;BME280;53766;50.280;19.160;2023-04-23T11:27:12;97865.91;;;19.47;32.88
66857;BME280;53766;50.280;19.160;2023-04-23T11:29:42;97857.31;;;19.45;32.86
66857;BME280;53766;50.280;19.160;2023-04-23T11:32:11;97856.84;;;19.48;33.00
66857;BME280;53766;50.280;19.160;2023-04-23T11:34:43;97838.75;;;19.50;32.97
66857;BME280;53766;50.280;19.160;2023-04-23T11:37:15;97852.91;;;19.50;32.77
66857;BME280;53766;50.280;19.160;2023-04-23T11:39:44;97858.84;;;19.52;32.85
66857;BME280;53766;50.280;19.160;2023-04-23T11:42:14;97862.91;;;19.55;32.77
66857;BME280;53766;50.280;19.160;2023-04-23T11:44:43;97855.94;;;19.54;32.73
66857;BME280;53766;50.280;19.160;2023-04-23T11:47:13;97848.53;;;19.56;32.93
66857;BME280;53766;50.280;19.160;2023-04-23T11:49:43;97852.22;;;19.55;33.07
66857;BME280;53766;50.280;19.160;2023-04-23T11:52:11;97849.34;;;19.57;33.22
66857;BME280;53766;50.280;19.160;2023-04-23T11:54:40;97841.09;;;19.58;32.78
66857;BME280;53766;50.280;19.160;2023-04-23T11:57:08;97838.44;;;19.58;32.79
66857;BME280;53766;50.280;19.160;2023-04-23T11:59:36;97845.97;;;19.61;32.72
66857;BME280;53766;50.280;19.160;2023-04-23T12:02:04;97851.31;;;19.61;32.50
66857;BME280;53766;50.280;19.160;2023-04-23T12:04:32;97862.00;;;19.61;32.17
66857;BME280;53766;50.280;19.160;2023-04-23T12:06:59;97842.88;;;19.64;32.13
66857;BME280;53766;50.280;19.160;2023-04-23T12:09:30;97840.22;;;19.64;32.50
66857;BME280;53766;50.280;19.160;2023-04-23T12:11:57;97851.53;;;19.60;32.19
66857;BME280;53766;50.280;19.160;2023-04-23T12:14:27;97836.09;;;19.62;31.98
66857;BME280;53766;50.280;19.160;2023-04-23T12:16:56;97826.69;;;19.59;31.89
66857;BME280;53766;50.280;19.160;2023-04-23T12:19:29;97834.13;;;19.57;32.09
66857;BME280;53766;50.280;19.160;2023-04-23T12:21:59;97826.69;;;19.59;32.22
66857;BME280;53766;50.280;19.160;2023-04-23T12:24:44;97831.59;;;19.62;32.39
66857;BME280;53766;50.280;19.160;2023-04-23T12:27:14;97830.31;;;19.65;32.34
66857;BME280;53766;50.280;19.160;2023-04-23T12:29:42;97825.41;;;19.62;31.89
66857;BME280;53766;50.280;19.160;2023-04-23T12:32:10;97823.00;;;19.60;32.01
66857;BME280;53766;50.280;19.160;2023-04-23T12:34:50;97818.09;;;19.57;31.69
66857;BME280;53766;50.280;19.160;2023-04-23T12:37:25;97816.59;;;19.61;31.82
66857;BME280;53766;50.280;19.160;2023-04-23T12:39:53;97815.56;;;19.62;32.32
66857;BME280;53766;50.280;19.160;2023-04-23T12:42:23;97812.66;;;19.64;32.10
66857;BME280;53766;50.280;19.160;2023-04-23T12:44:51;97808.75;;;19.66;32.22
66857;BME280;53766;50.280;19.160;2023-04-23T12:47:18;97813.50;;;19.64;32.38
66857;BME280;53766;50.280;19.160;2023-04-23T12:49:48;97810.22;;;19.62;31.79
66857;BME280;53766;50.280;19.160;2023-04-23T12:52:19;97808.59;;;19.61;31.64
66857;BME280;53766;50.280;19.160;2023-04-23T12:54:47;97805.31;;;19.59;31.95
66857;BME280;53766;50.280;19.160;2023-04-23T12:57:18;97799.19;;;19.59;32.19
66857;BME280;53766;50.280;19.160;2023-04-23T12:59:50;97809.38;;;19.62;32.25
66857;BME280;53766;50.280;19.160;2023-04-23T13:02:17;97808.59;;;19.61;32.21
66857;BME280;53766;50.280;19.160;2023-04-23T13:04:46;97804.88;;;19.62;32.36
66857;BME280;53766;50.280;19.160;2023-04-23T13:07:14;97809.38;;;19.62;32.07
66857;BME280;53766;50.280;19.160;2023-04-23T13:09:42;97806.97;;;19.60;32.25